createdAt,value
2022-08-02T00:00:18.476Z,89.81
2022-08-02T00:01:25.348Z,90.07
2022-08-02T00:02:21.949Z,90.07
2022-08-02T00:03:24.668Z,90.38
2022-08-02T00:04:25.415Z,90.37
2022-08-02T00:05:27.180Z,90.61
2022-08-02T00:06:28.953Z,90.78
2022-08-02T00:07:30.645Z,90.68
2022-08-02T00:08:32.561Z,90.72
2022-08-02T00:09:34.097Z,91.13
2022-08-02T00:10:35.831Z,91.06
2022-08-02T00:11:37.697Z,91.33
2022-08-02T00:12:39.477Z,91.6
2022-08-02T00:13:41.029Z,91.47
2022-08-02T00:14:42.836Z,91.54
2022-08-02T00:15:44.613Z,91.63
2022-08-02T00:16:46.248Z,91.7
2022-08-02T00:17:48.607Z,91.79
2022-08-02T00:18:49.714Z,92.01
2022-08-02T00:19:51.446Z,92.28
2022-08-02T00:20:53.174Z,92.45
2022-08-02T00:21:54.906Z,92.71
2022-08-02T00:22:56.845Z,92.77
2022-08-02T00:24:27.612Z,93.2
2022-08-02T00:25:00.354Z,93.71
2022-08-02T00:26:01.850Z,94.21
2022-08-02T00:27:03.590Z,94.14
2022-08-02T00:28:05.316Z,93.98
2022-08-02T00:29:07.376Z,94.26
2022-08-02T00:30:09.060Z,94.63
2022-08-02T00:31:27.739Z,94.45
2022-08-02T00:32:12.763Z,94.46
2022-08-02T00:33:14.150Z,94.68
2022-08-02T00:34:28.906Z,95.16
2022-08-02T00:35:17.453Z,94.92
2022-08-02T00:36:24.210Z,95.5
2022-08-02T00:37:20.974Z,95.75
2022-08-02T00:38:22.868Z,95.94
2022-08-02T00:39:34.972Z,95.94
2022-08-02T00:40:26.242Z,96.06
2022-08-02T00:41:27.886Z,96.17
2022-08-02T00:42:29.988Z,96.46
2022-08-02T00:43:31.647Z,96.23
2022-08-02T00:44:33.268Z,96.76
2022-08-02T00:46:02.087Z,96.6
2022-08-02T00:46:36.850Z,97.05
2022-08-02T00:47:38.407Z,96.94
2022-08-02T00:48:42.972Z,97.38
2022-08-02T00:49:41.949Z,97.5
2022-08-02T00:50:43.913Z,97.72
2022-08-02T00:51:45.541Z,98
2022-08-02T00:52:47.093Z,97.9
2022-08-02T00:53:48.698Z,98.32
2022-08-02T00:54:50.646Z,98.43
2022-08-02T00:55:52.186Z,98.47
2022-08-02T00:56:54.051Z,99
2022-08-02T00:57:55.805Z,98.9
2022-08-02T00:58:57.542Z,99.02
2022-08-02T00:59:59.271Z,98.66
2022-08-02T01:01:01.047Z,98.53
2022-08-02T01:02:02.556Z,98.71
2022-08-02T01:03:04.578Z,98.88
2022-08-02T01:04:05.992Z,98.83
2022-08-02T01:05:07.951Z,98.98
2022-08-02T01:06:41.278Z,98.82
2022-08-02T01:07:13.372Z,98.83
2022-08-02T01:08:13.191Z,98.97
2022-08-02T01:09:14.916Z,99.05
2022-08-02T01:10:16.579Z,99.07
2022-08-02T01:11:25.434Z,99.44
2022-08-02T01:12:20.490Z,99.21
2022-08-02T01:13:21.792Z,99.46
2022-08-02T01:14:23.592Z,99.13
2022-08-02T01:15:36.191Z,99.02
2022-08-02T01:16:26.845Z,98.89
2022-08-02T01:17:28.716Z,98.78
2022-08-02T01:18:30.417Z,98.86
2022-08-02T01:19:32.252Z,98.76
2022-08-02T01:20:33.992Z,98.82
2022-08-02T01:21:35.718Z,98.85
2022-08-02T01:22:59.984Z,98.87
2022-08-02T01:23:39.202Z,98.78
2022-08-02T01:24:40.726Z,98.99
2022-08-02T01:25:42.658Z,99.31
2022-08-02T01:26:44.384Z,99.29
2022-08-02T01:27:45.998Z,99.79
2022-08-02T01:28:47.794Z,99.28
2022-08-02T01:29:49.728Z,99.46
2022-08-02T01:30:51.886Z,99.5
2022-08-02T01:31:53.014Z,99.94
2022-08-02T01:32:54.682Z,99.59
2022-08-02T01:33:56.538Z,99.46
2022-08-02T01:34:58.132Z,99.54
2022-08-02T01:36:00.499Z,99.61
2022-08-02T01:37:01.747Z,99.61
2022-08-02T01:38:03.747Z,99.59
2022-08-02T01:39:05.233Z,99.72
2022-08-02T01:40:06.897Z,99.81
2022-08-02T01:41:24.090Z,100
2022-08-02T01:42:11.044Z,100
2022-08-02T01:43:12.341Z,100
2022-08-02T01:44:13.914Z,100
2022-08-02T01:45:15.603Z,100
2022-08-02T01:46:24.398Z,100
2022-08-02T01:47:19.030Z,100
2022-08-02T01:48:20.764Z,100
2022-08-02T01:49:22.595Z,100
2022-08-02T01:50:24.228Z,100
2022-08-02T01:51:25.970Z,100
2022-08-02T01:52:27.553Z,100
2022-08-02T01:53:29.501Z,100
2022-08-02T01:54:31.177Z,100
2022-08-02T01:55:35.290Z,100
2022-08-02T01:56:34.694Z,100
2022-08-02T01:57:41.847Z,100
2022-08-02T01:58:38.183Z,100
2022-08-02T01:59:40.007Z,100
2022-08-02T02:00:42.106Z,100
2022-08-02T02:01:43.759Z,100
2022-08-02T02:02:45.379Z,100
2022-08-02T02:03:47.095Z,100
2022-08-02T02:04:48.461Z,100
2022-08-02T02:05:50.797Z,100
2022-08-02T02:06:52.472Z,100
2022-08-02T02:07:54.188Z,100
2022-08-02T02:08:55.924Z,100
2022-08-02T02:09:57.428Z,100
2022-08-02T02:12:11.681Z,100
2022-08-02T02:12:11.941Z,100
2022-08-02T02:13:02.519Z,100
2022-08-02T02:14:04.086Z,100
2022-08-02T02:15:05.884Z,100
2022-08-02T02:16:07.623Z,100
2022-08-02T02:17:09.304Z,100
2022-08-02T02:18:13.695Z,100
2022-08-02T02:19:12.834Z,100
2022-08-02T02:20:14.573Z,100
2022-08-02T02:21:31.775Z,100
2022-08-02T02:22:17.972Z,100
2022-08-02T02:23:19.768Z,100
2022-08-02T02:24:21.606Z,100
2022-08-02T02:25:36.070Z,100
2022-08-02T02:26:31.072Z,100
2022-08-02T02:27:26.635Z,100
2022-08-02T02:28:28.362Z,100
2022-08-02T02:29:30.629Z,100
2022-08-02T02:30:36.764Z,100
2022-08-02T02:31:38.483Z,100
2022-08-02T02:32:40.250Z,100
2022-08-02T02:33:41.947Z,100
2022-08-02T02:34:43.702Z,100
2022-08-02T02:35:45.559Z,100
2022-08-02T02:36:47.147Z,100
2022-08-02T02:37:48.906Z,100
2022-08-02T02:38:50.788Z,100
2022-08-02T02:39:52.356Z,100
2022-08-02T02:40:54.090Z,100
2022-08-02T02:41:55.847Z,100
2022-08-02T02:42:57.564Z,100
2022-08-02T02:43:59.610Z,100
2022-08-02T02:45:01.211Z,100
2022-08-02T02:46:02.773Z,100
2022-08-02T02:47:04.659Z,100
2022-08-02T02:48:06.653Z,100
2022-08-02T02:49:08.015Z,100
2022-08-02T02:50:09.704Z,100
2022-08-02T02:51:21.441Z,100
2022-08-02T02:52:13.689Z,100
2022-08-02T02:53:14.920Z,100
2022-08-02T02:54:33.796Z,100
2022-08-02T02:55:18.479Z,100
2022-08-02T02:56:25.101Z,100
2022-08-02T02:57:21.863Z,100
2022-08-02T02:58:28.890Z,100
2022-08-02T02:59:25.333Z,100
2022-08-02T03:00:27.064Z,100
2022-08-02T03:01:55.884Z,100
2022-08-02T03:02:30.529Z,100
2022-08-02T03:03:32.447Z,100
2022-08-02T03:04:55.217Z,100
2022-08-02T03:05:35.779Z,100
2022-08-02T03:06:37.616Z,100
2022-08-02T03:07:39.310Z,100
2022-08-02T03:08:40.933Z,100
2022-08-02T03:09:42.679Z,100
2022-08-02T03:10:44.406Z,100
2022-08-02T03:11:46.146Z,100
2022-08-02T03:12:47.873Z,100
2022-08-02T03:13:49.610Z,100
2022-08-02T03:14:51.346Z,100
2022-08-02T03:15:53.122Z,100
2022-08-02T03:16:54.826Z,100
2022-08-02T03:17:56.554Z,100
2022-08-02T03:18:58.335Z,100
2022-08-02T03:20:00.346Z,100
2022-08-02T03:21:01.872Z,100
2022-08-02T03:22:03.598Z,100
2022-08-02T03:23:05.330Z,100
2022-08-02T03:24:07.028Z,100
2022-08-02T03:25:08.698Z,100
2022-08-02T03:26:25.786Z,100
2022-08-02T03:27:12.270Z,100
2022-08-02T03:28:13.970Z,100
2022-08-02T03:29:15.632Z,100
2022-08-02T03:30:17.474Z,100
2022-08-02T03:31:26.333Z,100
2022-08-02T03:32:20.847Z,100
2022-08-02T03:33:22.573Z,100
2022-08-02T03:34:24.330Z,100
2022-08-02T03:35:26.034Z,100
2022-08-02T03:36:27.769Z,100
2022-08-02T03:37:29.517Z,100
2022-08-02T03:38:31.413Z,100
2022-08-02T03:39:33.091Z,100
2022-08-02T03:40:34.777Z,100
2022-08-02T03:41:36.584Z,100
2022-08-02T03:42:38.169Z,100
2022-08-02T03:43:39.985Z,100
2022-08-02T03:44:41.664Z,100
2022-08-02T03:45:43.390Z,100
2022-08-02T03:46:45.128Z,100
2022-08-02T03:47:46.849Z,100
2022-08-02T03:48:48.582Z,100
2022-08-02T03:49:50.328Z,100
2022-08-02T03:50:52.183Z,100
2022-08-02T03:51:53.784Z,100
2022-08-02T03:52:55.579Z,100
2022-08-02T03:53:57.259Z,100
2022-08-02T03:54:59.035Z,100
2022-08-02T03:56:00.770Z,100
2022-08-02T03:57:02.467Z,100
2022-08-02T03:58:04.191Z,100
2022-08-02T03:59:05.933Z,100
2022-08-02T04:00:07.795Z,100
2022-08-02T04:01:09.503Z,100
2022-08-02T04:02:11.581Z,100
2022-08-02T04:03:12.882Z,100
2022-08-02T04:04:14.754Z,100
2022-08-02T04:05:16.462Z,100
2022-08-02T04:06:33.470Z,100
2022-08-02T04:08:33.960Z,100
2022-08-02T04:08:35.478Z,100
2022-08-02T04:09:23.382Z,100
2022-08-02T04:10:25.096Z,100
2022-08-02T04:11:26.778Z,100
2022-08-02T04:12:28.570Z,100
2022-08-02T04:13:35.692Z,100
2022-08-02T04:14:35.690Z,100
2022-08-02T04:15:33.829Z,100
2022-08-02T04:16:35.448Z,100
2022-08-02T04:17:37.233Z,100
2022-08-02T04:18:38.916Z,100
2022-08-02T04:19:40.641Z,100
2022-08-02T04:20:42.368Z,100
2022-08-02T04:21:51.191Z,100
2022-08-02T04:22:45.878Z,100
2022-08-02T04:23:47.582Z,100
2022-08-02T04:24:49.925Z,100
2022-08-02T04:25:51.487Z,100
2022-08-02T04:26:52.780Z,100
2022-08-02T04:28:17.687Z,100
2022-08-02T04:28:56.244Z,100
2022-08-02T04:29:57.990Z,100
2022-08-02T04:30:59.723Z,100
2022-08-02T04:32:01.467Z,100
2022-08-02T04:33:03.369Z,100
2022-08-02T04:34:05.062Z,100
2022-08-02T04:35:20.505Z,100
2022-08-02T04:36:31.332Z,100
2022-08-02T04:37:10.127Z,100
2022-08-02T04:38:11.976Z,100
2022-08-02T04:39:13.596Z,100
2022-08-02T04:40:15.329Z,100
2022-08-02T04:41:17.063Z,100
2022-08-02T04:42:18.906Z,100
2022-08-02T04:43:20.573Z,100
2022-08-02T04:44:22.337Z,100
2022-08-02T04:45:24.090Z,100
2022-08-02T04:46:28.881Z,100
2022-08-02T04:48:02.242Z,100
2022-08-02T04:48:29.293Z,100
2022-08-02T04:49:31.020Z,100
2022-08-02T04:50:32.754Z,100
2022-08-02T04:51:38.323Z,100
2022-08-02T04:52:36.254Z,100
2022-08-02T04:53:37.882Z,100
2022-08-02T04:54:39.636Z,100
2022-08-02T04:55:41.459Z,100
2022-08-02T04:56:43.105Z,100
2022-08-02T04:57:52.561Z,100
2022-08-02T04:58:46.583Z,100
2022-08-02T04:59:51.571Z,100
2022-08-02T05:00:50.299Z,100
2022-08-02T05:01:51.876Z,100
2022-08-02T05:02:53.500Z,100
2022-08-02T05:03:55.283Z,100
2022-08-02T05:04:56.978Z,100
2022-08-02T05:05:58.814Z,100
2022-08-02T05:07:00.709Z,100
2022-08-02T05:08:02.387Z,100
2022-08-02T05:09:04.036Z,100
2022-08-02T05:10:05.730Z,100
2022-08-02T05:11:07.489Z,100
2022-08-02T05:12:09.420Z,100
2022-08-02T05:13:10.942Z,100
2022-08-02T05:14:12.707Z,100
2022-08-02T05:15:14.315Z,100
2022-08-02T05:16:32.290Z,100
2022-08-02T05:17:17.780Z,100
2022-08-02T05:18:19.532Z,100
2022-08-02T05:19:21.245Z,100
2022-08-02T05:20:23.114Z,100
2022-08-02T05:21:32.117Z,100
2022-08-02T05:22:26.565Z,100
2022-08-02T05:23:28.194Z,100
2022-08-02T05:24:30.042Z,100
2022-08-02T05:25:31.682Z,100
2022-08-02T05:26:33.613Z,100
2022-08-02T05:27:35.185Z,100
2022-08-02T05:28:37.035Z,100
2022-08-02T05:29:38.733Z,100
2022-08-02T05:30:40.352Z,100
2022-08-02T05:31:42.192Z,100
2022-08-02T05:32:43.926Z,100
2022-08-02T05:33:45.649Z,100
2022-08-02T05:34:47.284Z,100
2022-08-02T05:35:49.026Z,100
2022-08-02T05:36:50.772Z,100
2022-08-02T05:37:52.646Z,100
2022-08-02T05:38:59.629Z,100
2022-08-02T05:39:56.445Z,100
2022-08-02T05:40:57.754Z,100
2022-08-02T05:41:59.493Z,100
2022-08-02T05:43:01.172Z,100
2022-08-02T05:44:02.978Z,100
2022-08-02T05:45:04.736Z,100
2022-08-02T05:46:06.359Z,100
2022-08-02T05:47:08.203Z,100
2022-08-02T05:48:09.953Z,100
2022-08-02T05:49:11.696Z,100
2022-08-02T05:50:13.328Z,100
2022-08-02T05:51:25.106Z,100
2022-08-02T05:52:17.017Z,100
2022-08-02T05:53:18.707Z,100
2022-08-02T05:54:20.405Z,100
2022-08-02T05:55:22.038Z,100
2022-08-02T05:56:24.180Z,100
2022-08-02T05:57:25.510Z,100
2022-08-02T05:58:27.275Z,100
2022-08-02T05:59:28.915Z,100
2022-08-02T06:00:30.642Z,100
2022-08-02T06:01:32.553Z,100
2022-08-02T06:02:34.117Z,100
2022-08-02T06:03:36.073Z,100
2022-08-02T06:04:37.703Z,100
2022-08-02T06:05:39.507Z,100
2022-08-02T06:06:41.233Z,100
2022-08-02T06:07:42.793Z,100
2022-08-02T06:08:47.627Z,100
2022-08-02T06:09:46.434Z,100
2022-08-02T06:10:48.030Z,100
2022-08-02T06:12:02.285Z,100
2022-08-02T06:12:51.474Z,100
2022-08-02T06:13:53.202Z,100
2022-08-02T06:14:54.944Z,100
2022-08-02T06:15:56.699Z,100
2022-08-02T06:16:58.510Z,100
2022-08-02T06:18:00.472Z,100
2022-08-02T06:19:01.995Z,100
2022-08-02T06:20:03.707Z,100
2022-08-02T06:22:33.856Z,100
2022-08-02T06:22:37.546Z,100
2022-08-02T06:23:13.580Z,100
2022-08-02T06:24:10.734Z,100
2022-08-02T06:25:49.802Z,100
2022-08-02T06:26:29.498Z,100
2022-08-02T06:27:15.786Z,100
2022-08-02T06:28:17.597Z,100
2022-08-02T06:29:19.293Z,100
2022-08-02T06:30:21.117Z,100
2022-08-02T06:31:25.874Z,100
2022-08-02T06:32:24.503Z,100
2022-08-02T06:33:26.213Z,100
2022-08-02T06:34:27.904Z,100
2022-08-02T06:35:29.740Z,100
2022-08-02T06:36:31.376Z,100
2022-08-02T06:37:33.214Z,100
2022-08-02T06:38:34.842Z,100
2022-08-02T06:39:36.589Z,100
2022-08-02T06:40:38.363Z,100
2022-08-02T06:41:40.334Z,100
2022-08-02T06:42:41.990Z,100
2022-08-02T06:43:43.610Z,100
2022-08-02T06:44:48.905Z,100
2022-08-02T06:45:46.977Z,100
2022-08-02T06:47:11.180Z,100
2022-08-02T06:47:50.453Z,100
2022-08-02T06:48:52.280Z,100
2022-08-02T06:49:54.877Z,100
2022-08-02T06:50:55.656Z,100
2022-08-02T06:51:57.392Z,100
2022-08-02T06:52:59.130Z,100
2022-08-02T06:54:01.031Z,100
2022-08-02T06:55:02.799Z,100
2022-08-02T06:56:04.373Z,100
2022-08-02T06:57:06.168Z,100
2022-08-02T06:58:07.895Z,98.91
2022-08-02T06:59:09.628Z,97.66
2022-08-02T07:00:11.710Z,96.53
2022-08-02T07:01:18.659Z,96.41
2022-08-02T07:02:14.973Z,96.42
2022-08-02T07:03:16.478Z,96.66
2022-08-02T07:04:20.241Z,96.59
2022-08-02T07:05:20.037Z,96.66
2022-08-02T07:06:21.667Z,96.89
2022-08-02T07:07:23.496Z,96.84
2022-08-02T07:08:25.255Z,96.53
2022-08-02T07:09:26.880Z,94.74
2022-08-02T07:10:28.602Z,94.19
2022-08-02T07:11:30.356Z,92.55
2022-08-02T07:12:32.130Z,93.21
2022-08-02T07:13:38.006Z,93.56
2022-08-02T07:14:35.546Z,93.18
2022-08-02T07:15:37.383Z,92.91
2022-08-02T07:16:39.031Z,92.01
2022-08-02T07:17:40.749Z,93.04
2022-08-02T07:18:42.485Z,91.23
2022-08-02T07:19:44.221Z,90.95
2022-08-02T07:20:45.969Z,90.47
2022-08-02T07:21:57.140Z,90.22
2022-08-02T07:22:49.451Z,91.04
2022-08-02T07:23:51.299Z,90.35
2022-08-02T07:24:52.897Z,89.99
2022-08-02T07:26:02.340Z,87.79
2022-08-02T07:27:10.585Z,89.1
2022-08-02T07:27:58.104Z,89.62
2022-08-02T07:28:59.828Z,90.38
2022-08-02T07:30:01.675Z,89.58
2022-08-02T07:31:03.300Z,84.58
2022-08-02T07:32:05.343Z,83.23
2022-08-02T07:33:06.855Z,83.52
2022-08-02T07:34:08.513Z,84.57
2022-08-02T07:35:10.252Z,83.82
2022-08-02T07:36:27.388Z,84.06
2022-08-02T07:37:35.087Z,82.93
2022-08-02T07:38:15.437Z,83.68
2022-08-02T07:39:17.219Z,81.01
2022-08-02T07:40:19.857Z,80.88
2022-08-02T07:41:21.800Z,82.08
2022-08-02T07:42:22.394Z,81.9
2022-08-02T07:43:24.157Z,79.51
2022-08-02T07:44:25.849Z,79.37
2022-08-02T07:45:27.689Z,79.63
2022-08-02T07:46:29.315Z,76.2
2022-08-02T07:47:31.064Z,77.01
2022-08-02T07:48:32.791Z,69
2022-08-02T07:49:34.610Z,72.25
2022-08-02T07:50:36.249Z,70.1
2022-08-02T07:51:37.994Z,69.72
2022-08-02T07:52:39.822Z,69.13
2022-08-02T07:53:51.372Z,71.55
2022-08-02T07:54:43.191Z,71.37
2022-08-02T07:55:45.014Z,69.31
2022-08-02T07:56:46.739Z,68.99
2022-08-02T07:57:48.401Z,68.02
2022-08-02T07:58:50.140Z,69.58
2022-08-02T07:59:51.995Z,66.32
2022-08-02T08:00:53.672Z,68.05
2022-08-02T08:01:55.395Z,68.12
2022-08-02T08:02:58.905Z,66.9
2022-08-02T08:03:58.925Z,63.87
2022-08-02T08:05:00.550Z,63.63
2022-08-02T08:06:02.293Z,64.16
2022-08-02T08:07:04.100Z,64.32
2022-08-02T08:08:05.740Z,63.39
2022-08-02T08:09:07.506Z,59.29
2022-08-02T08:10:09.222Z,61.17
2022-08-02T08:11:26.341Z,57
2022-08-02T08:12:13.141Z,58.85
2022-08-02T08:13:14.416Z,59.7
2022-08-02T08:14:17.011Z,59.18
2022-08-02T08:15:17.962Z,59.7
2022-08-02T08:16:19.728Z,60.77
2022-08-02T08:17:21.377Z,58.38
2022-08-02T08:18:23.146Z,59.91
2022-08-02T08:19:50.290Z,60.94
2022-08-02T08:20:26.573Z,59.22
2022-08-02T08:21:28.308Z,59
2022-08-02T08:22:30.042Z,59.68
2022-08-02T08:23:31.768Z,58.93
2022-08-02T08:24:33.509Z,60.29
2022-08-02T08:25:39.592Z,58.99
2022-08-02T08:26:36.982Z,57.21
2022-08-02T08:27:38.802Z,57.03
2022-08-02T08:28:40.434Z,55.9
2022-08-02T08:29:42.203Z,56.06
2022-08-02T08:30:43.913Z,56.05
2022-08-02T08:31:45.714Z,53.84
2022-08-02T08:32:47.430Z,52.31
2022-08-02T08:33:49.112Z,50.65
2022-08-02T08:34:50.934Z,51.72
2022-08-02T08:35:52.640Z,53.72
2022-08-02T08:36:54.320Z,54.64
2022-08-02T08:37:56.055Z,52.84
2022-08-02T08:38:57.877Z,52.76
2022-08-02T08:39:59.534Z,50.77
2022-08-02T08:41:01.259Z,51.95
2022-08-02T08:42:02.981Z,51.66
2022-08-02T08:43:04.744Z,53.08
2022-08-02T08:44:06.597Z,52.33
2022-08-02T08:45:08.213Z,52.92
2022-08-02T08:46:12.990Z,53.09
2022-08-02T08:47:11.698Z,52.17
2022-08-02T08:48:13.425Z,53.13
2022-08-02T08:49:15.195Z,52.99
2022-08-02T08:50:20.246Z,52.94
2022-08-02T08:51:25.819Z,53.31
2022-08-02T08:52:20.371Z,52.4
2022-08-02T08:53:22.127Z,50.56
2022-08-02T08:54:24.037Z,51.16
2022-08-02T08:55:25.545Z,48.38
2022-08-02T08:56:27.327Z,47.68
2022-08-02T08:57:29.030Z,50.34
2022-08-02T08:58:30.798Z,50.54
2022-08-02T08:59:32.608Z,50.48
2022-08-02T09:00:34.268Z,49.89
2022-08-02T09:01:50.511Z,48.64
2022-08-02T09:02:37.700Z,48.59
2022-08-02T09:03:39.446Z,50
2022-08-02T09:04:41.167Z,49.49
2022-08-02T09:05:42.907Z,50.4
2022-08-02T09:06:44.739Z,50.25
2022-08-02T09:07:46.406Z,48.95
2022-08-02T09:08:48.115Z,48.6
2022-08-02T09:09:49.870Z,48.28
2022-08-02T09:10:51.570Z,47.85
2022-08-02T09:11:53.316Z,48.07
2022-08-02T09:12:55.039Z,48.28
2022-08-02T09:13:56.795Z,48.54
2022-08-02T09:14:58.521Z,47.44
2022-08-02T09:16:11.105Z,48.79
2022-08-02T09:17:02.118Z,48.89
2022-08-02T09:18:03.727Z,47.92
2022-08-02T09:19:07.760Z,48.29
2022-08-02T09:20:07.178Z,49.16
2022-08-02T09:21:23.885Z,48.52
2022-08-02T09:22:11.236Z,48.69
2022-08-02T09:23:12.384Z,49.2
2022-08-02T09:24:14.142Z,48.2
2022-08-02T09:25:15.859Z,48.8
2022-08-02T09:26:17.592Z,47.83
2022-08-02T09:27:19.340Z,48.61
2022-08-02T09:28:21.066Z,48.6
2022-08-02T09:29:22.900Z,48.93
2022-08-02T09:30:24.829Z,47.59
2022-08-02T09:31:26.349Z,45.82
2022-08-02T09:32:28.009Z,46.6
2022-08-02T09:33:29.743Z,47.65
2022-08-02T09:34:31.470Z,47.77
2022-08-02T09:36:06.918Z,47.67
2022-08-02T09:36:35.095Z,46.62
2022-08-02T09:37:36.682Z,47.28
2022-08-02T09:38:38.532Z,46.78
2022-08-02T09:39:40.148Z,47.05
2022-08-02T09:40:42.150Z,46.3
2022-08-02T09:41:43.726Z,46.66
2022-08-02T09:42:45.363Z,46.37
2022-08-02T09:44:03.144Z,45.82
2022-08-02T09:44:48.824Z,46.18
2022-08-02T09:45:50.560Z,46.58
2022-08-02T09:46:52.293Z,46.56
2022-08-02T09:47:54.042Z,44.5
2022-08-02T09:48:55.851Z,45.28
2022-08-02T09:49:57.500Z,44.98
2022-08-02T09:50:59.266Z,44.73
2022-08-02T09:52:00.958Z,45.13
2022-08-02T09:53:02.920Z,45.41
2022-08-02T09:54:09.033Z,45.26
2022-08-02T09:55:06.171Z,45
2022-08-02T09:56:29.476Z,45.45
2022-08-02T09:57:09.648Z,45.46
2022-08-02T09:58:11.372Z,44.02
2022-08-02T09:59:13.098Z,45.54
2022-08-02T10:00:23.301Z,44.89
2022-08-02T10:01:37.033Z,45.67
2022-08-02T10:02:19.799Z,45.54
2022-08-02T10:03:22.578Z,45.21
2022-08-02T10:04:22.590Z,45.17
2022-08-02T10:05:23.532Z,45.36
2022-08-02T10:06:25.263Z,44.73
2022-08-02T10:07:27.129Z,44.38
2022-08-02T10:08:28.790Z,44.62
2022-08-02T10:09:30.459Z,43.31
2022-08-02T10:10:32.381Z,43.39
2022-08-02T10:11:33.938Z,42.99
2022-08-02T10:12:35.806Z,43.7
2022-08-02T10:13:37.449Z,44.22
2022-08-02T10:14:39.132Z,44.71
2022-08-02T10:15:50.424Z,43.48
2022-08-02T10:16:42.597Z,42.86
2022-08-02T10:17:44.401Z,44
2022-08-02T10:18:46.124Z,44
2022-08-02T10:20:02.257Z,44.21
2022-08-02T10:20:49.598Z,43.54
2022-08-02T10:21:51.271Z,43.39
2022-08-02T10:22:53.028Z,43.17
2022-08-02T10:23:54.751Z,43.99
2022-08-02T10:24:56.605Z,42.26
2022-08-02T10:26:00.265Z,41.89
2022-08-02T10:26:59.958Z,41.82
2022-08-02T10:28:05.536Z,42.76
2022-08-02T10:29:03.434Z,42.44
2022-08-02T10:30:05.329Z,41.35
2022-08-02T10:31:21.898Z,41.56
2022-08-02T10:32:09.023Z,41.21
2022-08-02T10:33:10.360Z,41.47
2022-08-02T10:34:12.080Z,41.22
2022-08-02T10:35:19.503Z,40.76
2022-08-02T10:36:18.686Z,40.29
2022-08-02T10:37:17.315Z,40.78
2022-08-02T10:38:19.032Z,41.66
2022-08-02T10:39:20.774Z,41.11
2022-08-02T10:40:22.505Z,41.22
2022-08-02T10:41:24.233Z,40.78
2022-08-02T10:42:26.058Z,40.51
2022-08-02T10:43:27.718Z,40.17
2022-08-02T10:44:29.428Z,39.22
2022-08-02T10:45:31.168Z,38.39
2022-08-02T10:46:32.916Z,38.8
2022-08-02T10:47:34.757Z,40.53
2022-08-02T10:48:36.380Z,39.89
2022-08-02T10:49:40.102Z,40.59
2022-08-02T10:50:39.878Z,40.74
2022-08-02T10:51:41.578Z,39.74
2022-08-02T10:52:43.331Z,40.33
2022-08-02T10:53:45.057Z,41.58
2022-08-02T10:54:46.791Z,40.27
2022-08-02T10:55:48.512Z,40.69
2022-08-02T10:56:50.253Z,41.22
2022-08-02T10:57:51.985Z,41.68
2022-08-02T10:58:53.727Z,41.6
2022-08-02T10:59:55.462Z,41.55
2022-08-02T11:00:57.235Z,39.68
2022-08-02T11:02:00.755Z,41.19
2022-08-02T11:03:00.658Z,39.77
2022-08-02T11:04:05.007Z,39.88
2022-08-02T11:05:04.141Z,40.25
2022-08-02T11:06:05.902Z,38.92
2022-08-02T11:07:07.624Z,38.97
2022-08-02T11:08:09.326Z,39.5
2022-08-02T11:09:11.055Z,38
2022-08-02T11:10:12.887Z,39.32
2022-08-02T11:11:54.023Z,39.58
2022-08-02T11:12:16.468Z,40.32
2022-08-02T11:13:18.137Z,40.69
2022-08-02T11:14:19.788Z,38.12
2022-08-02T11:15:21.483Z,38.53
2022-08-02T11:16:23.252Z,40.02
2022-08-02T11:17:24.967Z,41.19
2022-08-02T11:18:26.682Z,40.68
2022-08-02T11:19:28.430Z,39.99
2022-08-02T11:20:30.160Z,40.79
2022-08-02T11:21:31.908Z,40.81
2022-08-02T11:22:33.617Z,38.32
2022-08-02T11:23:44.189Z,39.17
2022-08-02T11:24:37.088Z,38.87
2022-08-02T11:26:02.588Z,39.28
2022-08-02T11:26:40.567Z,39
2022-08-02T11:27:42.450Z,38.51
2022-08-02T11:28:44.038Z,39.18
2022-08-02T11:29:45.754Z,38.46
2022-08-02T11:30:48.497Z,39.53
2022-08-02T11:31:49.525Z,38.32
2022-08-02T11:32:51.107Z,38.66
2022-08-02T11:33:52.705Z,37.25
2022-08-02T11:34:54.544Z,37.9
2022-08-02T11:35:57.407Z,38.19
2022-08-02T11:36:57.888Z,37.65
2022-08-02T11:37:59.635Z,37.97
2022-08-02T11:39:01.372Z,35.69
2022-08-02T11:40:03.114Z,36.44
2022-08-02T11:41:09.967Z,37.81
2022-08-02T11:42:06.769Z,37.58
2022-08-02T11:43:08.308Z,37.5
2022-08-02T11:44:10.254Z,37.07
2022-08-02T11:45:11.778Z,37.18
2022-08-02T11:46:16.644Z,37.08
2022-08-02T11:47:15.247Z,36.11
2022-08-02T11:48:17.008Z,37.35
2022-08-02T11:49:18.923Z,36.91
2022-08-02T11:50:20.574Z,35.85
2022-08-02T11:51:25.210Z,36.19
2022-08-02T11:52:24.015Z,36.2
2022-08-02T11:53:25.681Z,36.61
2022-08-02T11:54:27.387Z,36.76
2022-08-02T11:55:29.171Z,37.08
2022-08-02T11:56:30.850Z,35.71
2022-08-02T11:58:02.863Z,35.72
2022-08-02T11:58:34.306Z,36.08
2022-08-02T11:59:36.054Z,37.07
2022-08-02T12:00:38.077Z,36.58
2022-08-02T12:01:45.130Z,35.32
2022-08-02T12:02:41.291Z,35.3
2022-08-02T12:03:43.045Z,35.97
2022-08-02T12:04:44.893Z,36.12
2022-08-02T12:06:04.733Z,36.46
2022-08-02T12:06:48.192Z,35.83
2022-08-02T12:07:49.919Z,36.31
2022-08-02T12:08:51.943Z,35.44
2022-08-02T12:09:53.389Z,35.57
2022-08-02T12:10:55.480Z,35.35
2022-08-02T12:11:56.857Z,36.07
2022-08-02T12:12:58.628Z,36.22
2022-08-02T12:14:00.367Z,34.8
2022-08-02T12:15:02.329Z,35.14
2022-08-02T12:16:19.192Z,35.58
2022-08-02T12:17:05.573Z,35.11
2022-08-02T12:18:07.367Z,34.6
2022-08-02T12:19:09.057Z,34.03
2022-08-02T12:20:10.748Z,34.42
2022-08-02T12:21:12.576Z,35.02
2022-08-02T12:22:14.801Z,34.76
2022-08-02T12:23:15.955Z,35.11
2022-08-02T12:24:17.705Z,34.38
2022-08-02T12:25:34.525Z,33.84
2022-08-02T12:26:21.153Z,34.08
2022-08-02T12:27:22.951Z,34.4
2022-08-02T12:28:24.619Z,34.25
2022-08-02T12:29:57.871Z,35.14
2022-08-02T12:30:28.087Z,34.23
2022-08-02T12:31:29.840Z,34.96
2022-08-02T12:32:31.581Z,34.59
2022-08-02T12:33:37.702Z,35.27
2022-08-02T12:34:35.048Z,34.95
2022-08-02T12:35:36.768Z,35.74
2022-08-02T12:36:38.503Z,34.91
2022-08-02T12:37:40.270Z,34.88
2022-08-02T12:38:41.963Z,34.44
2022-08-02T12:39:43.720Z,34.62
2022-08-02T12:40:45.437Z,34.79
2022-08-02T12:41:54.286Z,35.28
2022-08-02T12:42:48.953Z,34.52
2022-08-02T12:43:50.697Z,34.64
2022-08-02T12:44:52.385Z,33.15
2022-08-02T12:45:54.117Z,34.03
2022-08-02T12:46:55.842Z,34.04
2022-08-02T12:47:57.589Z,33.57
2022-08-02T12:50:01.148Z,32.65
2022-08-02T12:51:03.148Z,33.48
2022-08-02T12:52:06.781Z,33.52
2022-08-02T12:53:06.272Z,34.36
2022-08-02T12:54:08.129Z,34.98
2022-08-02T12:55:09.716Z,34.69
2022-08-02T12:56:14.496Z,32.1
2022-08-02T12:57:13.335Z,33.09
2022-08-02T12:58:14.975Z,33.04
2022-08-02T12:59:16.661Z,32.87
2022-08-02T13:00:18.693Z,33.57
2022-08-02T13:01:20.393Z,33.78
2022-08-02T13:02:22.011Z,34.16
2022-08-02T13:04:09.810Z,34.3
2022-08-02T13:04:25.348Z,33.71
2022-08-02T13:05:27.236Z,34.33
2022-08-02T13:06:39.734Z,35.07
2022-08-02T13:07:30.739Z,33.51
2022-08-02T13:08:32.282Z,33.43
2022-08-02T13:09:34.022Z,33.95
2022-08-02T13:10:35.844Z,34.49
2022-08-02T13:11:37.548Z,33.4
2022-08-02T13:12:39.256Z,33.85
2022-08-02T13:13:40.945Z,34.15
2022-08-02T13:14:42.982Z,34.56
2022-08-02T13:15:48.990Z,33.19
2022-08-02T13:16:46.159Z,32.33
2022-08-02T13:17:47.970Z,32.76
2022-08-02T13:18:49.608Z,33.79
2022-08-02T13:19:51.931Z,34.42
2022-08-02T13:20:53.186Z,34.51
2022-08-02T13:22:01.234Z,33.85
2022-08-02T13:22:56.547Z,34.6
2022-08-02T13:23:58.308Z,34.97
2022-08-02T13:25:00.046Z,34.65
2022-08-02T13:26:01.785Z,34.01
2022-08-02T13:27:05.202Z,34.21
2022-08-02T13:28:05.306Z,33.76
2022-08-02T13:29:07.115Z,33.97
2022-08-02T13:30:08.716Z,34.64
2022-08-02T13:31:36.097Z,33.57
2022-08-02T13:32:12.663Z,34.25
2022-08-02T13:33:13.940Z,34.24
2022-08-02T13:34:15.713Z,34.17
2022-08-02T13:35:17.929Z,33.71
2022-08-02T13:36:19.158Z,33.63
2022-08-02T13:37:20.858Z,33.58
2022-08-02T13:38:24.961Z,32.45